<?xml version="1.0" encoding="UTF-8" standalone="no" ?>
<gpx xmlns="http://www.topografix.com/GPX/1/1" xmlns:xsi="http://www.w3.org/2001/XMLSchema-instance" xsi:schemaLocation="http://www.topografix.com/GPX/1/1 http://www.topografix.com/GPX/1/1/gpx.xsd" version="1.1" creator="VisuGPX - https://www.visugpx.com">
  <metadata>
    <name>Sautron_Breil_13km</name>
    <desc><![CDATA[gnerando idor:6470833_14186309_]]></desc>
  </metadata>
  <trk>
    <name><![CDATA[Sautron_Breil_13km-6470833]]></name>
    <extensions>
      <line xmlns="http://www.topografix.com/GPX/gpx_style/0/2">
        <color>00FF00</color>
        <width>4</width>
      </line>
    </extensions>
    <trkseg>
      <trkpt lat="47.26802" lon="-1.67119">
        <ele>43</ele>
        <time>2023-11-13T11:01:53Z</time>
      </trkpt>
      <trkpt lat="47.26814" lon="-1.67139">
        <ele>42</ele>
        <time>2023-11-13T11:02:17Z</time>
      </trkpt>
      <trkpt lat="47.2685" lon="-1.67149">
        <ele>40</ele>
        <time>2023-11-13T11:03:06Z</time>
      </trkpt>
      <trkpt lat="47.26879" lon="-1.67181">
        <ele>40</ele>
        <time>2023-11-13T11:03:54Z</time>
      </trkpt>
      <trkpt lat="47.26915" lon="-1.67198">
        <ele>41</ele>
        <time>2023-11-13T11:04:45Z</time>
      </trkpt>
      <trkpt lat="47.26934" lon="-1.67195">
        <ele>41</ele>
        <time>2023-11-13T11:05:10Z</time>
      </trkpt>
      <trkpt lat="47.26951" lon="-1.67186">
        <ele>41</ele>
        <time>2023-11-13T11:05:34Z</time>
      </trkpt>
      <trkpt lat="47.26988" lon="-1.67177">
        <ele>41</ele>
        <time>2023-11-13T11:06:25Z</time>
      </trkpt>
      <trkpt lat="47.27007" lon="-1.6717">
        <ele>42</ele>
        <time>2023-11-13T11:06:51Z</time>
      </trkpt>
      <trkpt lat="47.27025" lon="-1.67167">
        <ele>43</ele>
        <time>2023-11-13T11:07:15Z</time>
      </trkpt>
      <trkpt lat="47.27083" lon="-1.67182">
        <ele>45</ele>
        <time>2023-11-13T11:08:33Z</time>
      </trkpt>
      <trkpt lat="47.271" lon="-1.67191">
        <ele>46</ele>
        <time>2023-11-13T11:08:57Z</time>
      </trkpt>
      <trkpt lat="47.27117" lon="-1.67204">
        <ele>47</ele>
        <time>2023-11-13T11:09:23Z</time>
      </trkpt>
      <trkpt lat="47.27125" lon="-1.67229">
        <ele>45</ele>
        <time>2023-11-13T11:09:48Z</time>
      </trkpt>
      <trkpt lat="47.27136" lon="-1.67282">
        <ele>43</ele>
        <time>2023-11-13T11:10:38Z</time>
      </trkpt>
      <trkpt lat="47.27115" lon="-1.67358">
        <ele>41</ele>
        <time>2023-11-13T11:11:53Z</time>
      </trkpt>
      <trkpt lat="47.27078" lon="-1.67355">
        <ele>39</ele>
        <time>2023-11-13T11:12:42Z</time>
      </trkpt>
      <trkpt lat="47.27066" lon="-1.67378">
        <ele>40</ele>
        <time>2023-11-13T11:13:08Z</time>
      </trkpt>
      <trkpt lat="47.27075" lon="-1.67429">
        <ele>41</ele>
        <time>2023-11-13T11:13:56Z</time>
      </trkpt>
      <trkpt lat="47.27069" lon="-1.67456">
        <ele>42</ele>
        <time>2023-11-13T11:14:22Z</time>
      </trkpt>
      <trkpt lat="47.27075" lon="-1.67538">
        <ele>43</ele>
        <time>2023-11-13T11:15:36Z</time>
      </trkpt>
      <trkpt lat="47.27093" lon="-1.67588">
        <ele>44</ele>
        <time>2023-11-13T11:16:28Z</time>
      </trkpt>
      <trkpt lat="47.27101" lon="-1.67641">
        <ele>47</ele>
        <time>2023-11-13T11:17:17Z</time>
      </trkpt>
      <trkpt lat="47.27108" lon="-1.67666">
        <ele>48</ele>
        <time>2023-11-13T11:17:41Z</time>
      </trkpt>
      <trkpt lat="47.27107" lon="-1.67692">
        <ele>48</ele>
        <time>2023-11-13T11:18:05Z</time>
      </trkpt>
      <trkpt lat="47.27105" lon="-1.67719">
        <ele>48</ele>
        <time>2023-11-13T11:18:29Z</time>
      </trkpt>
      <trkpt lat="47.27098" lon="-1.67743">
        <ele>49</ele>
        <time>2023-11-13T11:18:53Z</time>
      </trkpt>
      <trkpt lat="47.27078" lon="-1.67794">
        <ele>48</ele>
        <time>2023-11-13T11:19:46Z</time>
      </trkpt>
      <trkpt lat="47.27065" lon="-1.67846">
        <ele>48</ele>
        <time>2023-11-13T11:20:37Z</time>
      </trkpt>
      <trkpt lat="47.27045" lon="-1.67891">
        <ele>51</ele>
        <time>2023-11-13T11:21:25Z</time>
      </trkpt>
      <trkpt lat="47.27035" lon="-1.67943">
        <ele>52</ele>
        <time>2023-11-13T11:22:14Z</time>
      </trkpt>
      <trkpt lat="47.27034" lon="-1.68024">
        <ele>52</ele>
        <time>2023-11-13T11:23:28Z</time>
      </trkpt>
      <trkpt lat="47.2708" lon="-1.6814">
        <ele>45</ele>
        <time>2023-11-13T11:25:29Z</time>
      </trkpt>
      <trkpt lat="47.27074" lon="-1.68166">
        <ele>48</ele>
        <time>2023-11-13T11:25:54Z</time>
      </trkpt>
      <trkpt lat="47.27076" lon="-1.68193">
        <ele>48</ele>
        <time>2023-11-13T11:26:19Z</time>
      </trkpt>
      <trkpt lat="47.27121" lon="-1.68244">
        <ele>46</ele>
        <time>2023-11-13T11:27:35Z</time>
      </trkpt>
      <trkpt lat="47.27134" lon="-1.68263">
        <ele>47</ele>
        <time>2023-11-13T11:27:59Z</time>
      </trkpt>
      <trkpt lat="47.27156" lon="-1.68306">
        <ele>49</ele>
        <time>2023-11-13T11:28:48Z</time>
      </trkpt>
      <trkpt lat="47.27174" lon="-1.68353">
        <ele>52</ele>
        <time>2023-11-13T11:29:37Z</time>
      </trkpt>
      <trkpt lat="47.27207" lon="-1.68421">
        <ele>55</ele>
        <time>2023-11-13T11:30:52Z</time>
      </trkpt>
      <trkpt lat="47.27205" lon="-1.68448">
        <ele>55</ele>
        <time>2023-11-13T11:31:17Z</time>
      </trkpt>
      <trkpt lat="47.27181" lon="-1.68489">
        <ele>56</ele>
        <time>2023-11-13T11:32:06Z</time>
      </trkpt>
      <trkpt lat="47.27165" lon="-1.68505">
        <ele>57</ele>
        <time>2023-11-13T11:32:32Z</time>
      </trkpt>
      <trkpt lat="47.27147" lon="-1.68512">
        <ele>58</ele>
        <time>2023-11-13T11:32:57Z</time>
      </trkpt>
      <trkpt lat="47.27109" lon="-1.68517">
        <ele>59</ele>
        <time>2023-11-13T11:33:47Z</time>
      </trkpt>
      <trkpt lat="47.271" lon="-1.68569">
        <ele>62</ele>
        <time>2023-11-13T11:34:36Z</time>
      </trkpt>
      <trkpt lat="47.27083" lon="-1.68617">
        <ele>64</ele>
        <time>2023-11-13T11:35:25Z</time>
      </trkpt>
      <trkpt lat="47.27084" lon="-1.68645">
        <ele>65</ele>
        <time>2023-11-13T11:35:50Z</time>
      </trkpt>
      <trkpt lat="47.27097" lon="-1.68662">
        <ele>65</ele>
        <time>2023-11-13T11:36:14Z</time>
      </trkpt>
      <trkpt lat="47.27107" lon="-1.68686">
        <ele>65</ele>
        <time>2023-11-13T11:36:39Z</time>
      </trkpt>
      <trkpt lat="47.27111" lon="-1.68712">
        <ele>65</ele>
        <time>2023-11-13T11:37:03Z</time>
      </trkpt>
      <trkpt lat="47.27089" lon="-1.68758">
        <ele>66</ele>
        <time>2023-11-13T11:37:54Z</time>
      </trkpt>
      <trkpt lat="47.27095" lon="-1.68784">
        <ele>66</ele>
        <time>2023-11-13T11:38:19Z</time>
      </trkpt>
      <trkpt lat="47.27111" lon="-1.688">
        <ele>66</ele>
        <time>2023-11-13T11:38:45Z</time>
      </trkpt>
      <trkpt lat="47.27152" lon="-1.68855">
        <ele>67</ele>
        <time>2023-11-13T11:39:59Z</time>
      </trkpt>
      <trkpt lat="47.27167" lon="-1.6887">
        <ele>67</ele>
        <time>2023-11-13T11:40:23Z</time>
      </trkpt>
      <trkpt lat="47.27183" lon="-1.68855">
        <ele>67</ele>
        <time>2023-11-13T11:40:48Z</time>
      </trkpt>
      <trkpt lat="47.27193" lon="-1.68831">
        <ele>66</ele>
        <time>2023-11-13T11:41:14Z</time>
      </trkpt>
      <trkpt lat="47.27208" lon="-1.68815">
        <ele>65</ele>
        <time>2023-11-13T11:41:39Z</time>
      </trkpt>
      <trkpt lat="47.27219" lon="-1.68794">
        <ele>64</ele>
        <time>2023-11-13T11:42:03Z</time>
      </trkpt>
      <trkpt lat="47.27261" lon="-1.68741">
        <ele>60</ele>
        <time>2023-11-13T11:43:16Z</time>
      </trkpt>
      <trkpt lat="47.27276" lon="-1.68725">
        <ele>59</ele>
        <time>2023-11-13T11:43:41Z</time>
      </trkpt>
      <trkpt lat="47.27293" lon="-1.68713">
        <ele>58</ele>
        <time>2023-11-13T11:44:06Z</time>
      </trkpt>
      <trkpt lat="47.27311" lon="-1.68706">
        <ele>57</ele>
        <time>2023-11-13T11:44:31Z</time>
      </trkpt>
      <trkpt lat="47.27326" lon="-1.68693">
        <ele>56</ele>
        <time>2023-11-13T11:44:54Z</time>
      </trkpt>
      <trkpt lat="47.27352" lon="-1.68655">
        <ele>54</ele>
        <time>2023-11-13T11:45:43Z</time>
      </trkpt>
      <trkpt lat="47.27393" lon="-1.68602">
        <ele>52</ele>
        <time>2023-11-13T11:46:56Z</time>
      </trkpt>
      <trkpt lat="47.27404" lon="-1.6858">
        <ele>51</ele>
        <time>2023-11-13T11:47:21Z</time>
      </trkpt>
      <trkpt lat="47.27422" lon="-1.68574">
        <ele>50</ele>
        <time>2023-11-13T11:47:45Z</time>
      </trkpt>
      <trkpt lat="47.27435" lon="-1.68556">
        <ele>49</ele>
        <time>2023-11-13T11:48:09Z</time>
      </trkpt>
      <trkpt lat="47.27442" lon="-1.6853">
        <ele>47</ele>
        <time>2023-11-13T11:48:35Z</time>
      </trkpt>
      <trkpt lat="47.27454" lon="-1.6851">
        <ele>46</ele>
        <time>2023-11-13T11:48:59Z</time>
      </trkpt>
      <trkpt lat="47.27469" lon="-1.68495">
        <ele>47</ele>
        <time>2023-11-13T11:49:23Z</time>
      </trkpt>
      <trkpt lat="47.27474" lon="-1.6847">
        <ele>48</ele>
        <time>2023-11-13T11:49:46Z</time>
      </trkpt>
      <trkpt lat="47.27475" lon="-1.68443">
        <ele>50</ele>
        <time>2023-11-13T11:50:11Z</time>
      </trkpt>
      <trkpt lat="47.27467" lon="-1.68408">
        <ele>50</ele>
        <time>2023-11-13T11:50:44Z</time>
      </trkpt>
      <trkpt lat="47.27477" lon="-1.68386">
        <ele>52</ele>
        <time>2023-11-13T11:51:08Z</time>
      </trkpt>
      <trkpt lat="47.27504" lon="-1.68349">
        <ele>57</ele>
        <time>2023-11-13T11:51:58Z</time>
      </trkpt>
      <trkpt lat="47.27507" lon="-1.68239">
        <ele>59</ele>
        <time>2023-11-13T11:53:37Z</time>
      </trkpt>
      <trkpt lat="47.27511" lon="-1.68185">
        <ele>60</ele>
        <time>2023-11-13T11:54:26Z</time>
      </trkpt>
      <trkpt lat="47.27519" lon="-1.68131">
        <ele>60</ele>
        <time>2023-11-13T11:55:16Z</time>
      </trkpt>
      <trkpt lat="47.27531" lon="-1.68079">
        <ele>61</ele>
        <time>2023-11-13T11:56:06Z</time>
      </trkpt>
      <trkpt lat="47.27534" lon="-1.68052">
        <ele>61</ele>
        <time>2023-11-13T11:56:31Z</time>
      </trkpt>
      <trkpt lat="47.27551" lon="-1.68044">
        <ele>62</ele>
        <time>2023-11-13T11:56:55Z</time>
      </trkpt>
      <trkpt lat="47.27563" lon="-1.68022">
        <ele>62</ele>
        <time>2023-11-13T11:57:20Z</time>
      </trkpt>
      <trkpt lat="47.276" lon="-1.68025">
        <ele>62</ele>
        <time>2023-11-13T11:58:10Z</time>
      </trkpt>
      <trkpt lat="47.27618" lon="-1.68022">
        <ele>62</ele>
        <time>2023-11-13T11:58:34Z</time>
      </trkpt>
      <trkpt lat="47.27636" lon="-1.68014">
        <ele>62</ele>
        <time>2023-11-13T11:58:59Z</time>
      </trkpt>
      <trkpt lat="47.27664" lon="-1.67979">
        <ele>61</ele>
        <time>2023-11-13T11:59:48Z</time>
      </trkpt>
      <trkpt lat="47.27702" lon="-1.67919">
        <ele>60</ele>
        <time>2023-11-13T12:01:02Z</time>
      </trkpt>
      <trkpt lat="47.27717" lon="-1.67901">
        <ele>59</ele>
        <time>2023-11-13T12:01:28Z</time>
      </trkpt>
      <trkpt lat="47.27742" lon="-1.67862">
        <ele>59</ele>
        <time>2023-11-13T12:02:17Z</time>
      </trkpt>
      <trkpt lat="47.278" lon="-1.67792">
        <ele>60</ele>
        <time>2023-11-13T12:03:57Z</time>
      </trkpt>
      <trkpt lat="47.27817" lon="-1.67779">
        <ele>61</ele>
        <time>2023-11-13T12:04:22Z</time>
      </trkpt>
      <trkpt lat="47.27834" lon="-1.67769">
        <ele>61</ele>
        <time>2023-11-13T12:04:47Z</time>
      </trkpt>
      <trkpt lat="47.27852" lon="-1.67768">
        <ele>60</ele>
        <time>2023-11-13T12:05:11Z</time>
      </trkpt>
      <trkpt lat="47.27869" lon="-1.67779">
        <ele>59</ele>
        <time>2023-11-13T12:05:36Z</time>
      </trkpt>
      <trkpt lat="47.27904" lon="-1.67762">
        <ele>58</ele>
        <time>2023-11-13T12:06:25Z</time>
      </trkpt>
      <trkpt lat="47.27941" lon="-1.67751">
        <ele>57</ele>
        <time>2023-11-13T12:07:15Z</time>
      </trkpt>
      <trkpt lat="47.27978" lon="-1.67746">
        <ele>57</ele>
        <time>2023-11-13T12:08:05Z</time>
      </trkpt>
      <trkpt lat="47.27991" lon="-1.67727">
        <ele>58</ele>
        <time>2023-11-13T12:08:29Z</time>
      </trkpt>
      <trkpt lat="47.28009" lon="-1.67509">
        <ele>58</ele>
        <time>2023-11-13T12:11:48Z</time>
      </trkpt>
      <trkpt lat="47.28009" lon="-1.67481">
        <ele>59</ele>
        <time>2023-11-13T12:12:13Z</time>
      </trkpt>
      <trkpt lat="47.27995" lon="-1.67463">
        <ele>59</ele>
        <time>2023-11-13T12:12:38Z</time>
      </trkpt>
      <trkpt lat="47.27942" lon="-1.67439">
        <ele>60</ele>
        <time>2023-11-13T12:13:52Z</time>
      </trkpt>
      <trkpt lat="47.27924" lon="-1.67435">
        <ele>61</ele>
        <time>2023-11-13T12:14:16Z</time>
      </trkpt>
      <trkpt lat="47.27921" lon="-1.67408">
        <ele>62</ele>
        <time>2023-11-13T12:14:41Z</time>
      </trkpt>
      <trkpt lat="47.27932" lon="-1.67385">
        <ele>62</ele>
        <time>2023-11-13T12:15:07Z</time>
      </trkpt>
      <trkpt lat="47.27968" lon="-1.67259">
        <ele>62</ele>
        <time>2023-11-13T12:17:10Z</time>
      </trkpt>
      <trkpt lat="47.27985" lon="-1.67211">
        <ele>62</ele>
        <time>2023-11-13T12:17:59Z</time>
      </trkpt>
      <trkpt lat="47.28019" lon="-1.67082">
        <ele>63</ele>
        <time>2023-11-13T12:20:05Z</time>
      </trkpt>
      <trkpt lat="47.28025" lon="-1.67056">
        <ele>63</ele>
        <time>2023-11-13T12:20:30Z</time>
      </trkpt>
      <trkpt lat="47.28028" lon="-1.67027">
        <ele>62</ele>
        <time>2023-11-13T12:20:56Z</time>
      </trkpt>
      <trkpt lat="47.2805" lon="-1.66952">
        <ele>62</ele>
        <time>2023-11-13T12:22:10Z</time>
      </trkpt>
      <trkpt lat="47.28083" lon="-1.66707">
        <ele>63</ele>
        <time>2023-11-13T12:25:56Z</time>
      </trkpt>
      <trkpt lat="47.28097" lon="-1.66657">
        <ele>63</ele>
        <time>2023-11-13T12:26:45Z</time>
      </trkpt>
      <trkpt lat="47.28113" lon="-1.6667">
        <ele>62</ele>
        <time>2023-11-13T12:27:10Z</time>
      </trkpt>
      <trkpt lat="47.2814" lon="-1.66708">
        <ele>61</ele>
        <time>2023-11-13T12:27:59Z</time>
      </trkpt>
      <trkpt lat="47.28171" lon="-1.66742">
        <ele>61</ele>
        <time>2023-11-13T12:28:51Z</time>
      </trkpt>
      <trkpt lat="47.28205" lon="-1.66763">
        <ele>62</ele>
        <time>2023-11-13T12:29:40Z</time>
      </trkpt>
      <trkpt lat="47.28292" lon="-1.6681">
        <ele>64</ele>
        <time>2023-11-13T12:31:44Z</time>
      </trkpt>
      <trkpt lat="47.28327" lon="-1.66826">
        <ele>66</ele>
        <time>2023-11-13T12:32:33Z</time>
      </trkpt>
      <trkpt lat="47.28379" lon="-1.66858">
        <ele>66</ele>
        <time>2023-11-13T12:33:48Z</time>
      </trkpt>
      <trkpt lat="47.28397" lon="-1.66865">
        <ele>66</ele>
        <time>2023-11-13T12:34:13Z</time>
      </trkpt>
      <trkpt lat="47.28432" lon="-1.66884">
        <ele>66</ele>
        <time>2023-11-13T12:35:03Z</time>
      </trkpt>
      <trkpt lat="47.2845" lon="-1.66888">
        <ele>66</ele>
        <time>2023-11-13T12:35:27Z</time>
      </trkpt>
      <trkpt lat="47.28469" lon="-1.66885">
        <ele>66</ele>
        <time>2023-11-13T12:35:52Z</time>
      </trkpt>
      <trkpt lat="47.28561" lon="-1.66859">
        <ele>66</ele>
        <time>2023-11-13T12:37:57Z</time>
      </trkpt>
      <trkpt lat="47.28598" lon="-1.66852">
        <ele>66</ele>
        <time>2023-11-13T12:38:47Z</time>
      </trkpt>
      <trkpt lat="47.28605" lon="-1.668">
        <ele>67</ele>
        <time>2023-11-13T12:39:35Z</time>
      </trkpt>
      <trkpt lat="47.28594" lon="-1.66748">
        <ele>68</ele>
        <time>2023-11-13T12:40:24Z</time>
      </trkpt>
      <trkpt lat="47.28575" lon="-1.66416">
        <ele>69</ele>
        <time>2023-11-13T12:45:26Z</time>
      </trkpt>
      <trkpt lat="47.28586" lon="-1.66394">
        <ele>69</ele>
        <time>2023-11-13T12:45:51Z</time>
      </trkpt>
      <trkpt lat="47.28603" lon="-1.66383">
        <ele>69</ele>
        <time>2023-11-13T12:46:16Z</time>
      </trkpt>
      <trkpt lat="47.28621" lon="-1.66387">
        <ele>69</ele>
        <time>2023-11-13T12:46:40Z</time>
      </trkpt>
      <trkpt lat="47.28638" lon="-1.66397">
        <ele>70</ele>
        <time>2023-11-13T12:47:04Z</time>
      </trkpt>
      <trkpt lat="47.28655" lon="-1.66386">
        <ele>70</ele>
        <time>2023-11-13T12:47:29Z</time>
      </trkpt>
      <trkpt lat="47.2867" lon="-1.6637">
        <ele>69</ele>
        <time>2023-11-13T12:47:54Z</time>
      </trkpt>
      <trkpt lat="47.28682" lon="-1.6635">
        <ele>69</ele>
        <time>2023-11-13T12:48:18Z</time>
      </trkpt>
      <trkpt lat="47.28697" lon="-1.66331">
        <ele>69</ele>
        <time>2023-11-13T12:48:44Z</time>
      </trkpt>
      <trkpt lat="47.28721" lon="-1.66289">
        <ele>69</ele>
        <time>2023-11-13T12:49:34Z</time>
      </trkpt>
      <trkpt lat="47.28748" lon="-1.66251">
        <ele>69</ele>
        <time>2023-11-13T12:50:24Z</time>
      </trkpt>
      <trkpt lat="47.28772" lon="-1.6621">
        <ele>68</ele>
        <time>2023-11-13T12:51:13Z</time>
      </trkpt>
      <trkpt lat="47.28814" lon="-1.66151">
        <ele>68</ele>
        <time>2023-11-13T12:52:30Z</time>
      </trkpt>
      <trkpt lat="47.28826" lon="-1.6613">
        <ele>68</ele>
        <time>2023-11-13T12:52:55Z</time>
      </trkpt>
      <trkpt lat="47.2884" lon="-1.66114">
        <ele>67</ele>
        <time>2023-11-13T12:53:19Z</time>
      </trkpt>
      <trkpt lat="47.28933" lon="-1.65981">
        <ele>67</ele>
        <time>2023-11-13T12:56:12Z</time>
      </trkpt>
      <trkpt lat="47.28922" lon="-1.65959">
        <ele>67</ele>
        <time>2023-11-13T12:56:36Z</time>
      </trkpt>
      <trkpt lat="47.28907" lon="-1.65941">
        <ele>67</ele>
        <time>2023-11-13T12:57:02Z</time>
      </trkpt>
      <trkpt lat="47.28923" lon="-1.65954">
        <ele>67</ele>
        <time>2023-11-13T12:57:27Z</time>
      </trkpt>
      <trkpt lat="47.28934" lon="-1.65977">
        <ele>67</ele>
        <time>2023-11-13T12:57:52Z</time>
      </trkpt>
      <trkpt lat="47.28951" lon="-1.65989">
        <ele>68</ele>
        <time>2023-11-13T12:58:17Z</time>
      </trkpt>
      <trkpt lat="47.28997" lon="-1.66036">
        <ele>69</ele>
        <time>2023-11-13T12:59:32Z</time>
      </trkpt>
      <trkpt lat="47.29037" lon="-1.66093">
        <ele>68</ele>
        <time>2023-11-13T13:00:46Z</time>
      </trkpt>
      <trkpt lat="47.29073" lon="-1.66158">
        <ele>68</ele>
        <time>2023-11-13T13:02:02Z</time>
      </trkpt>
      <trkpt lat="47.29111" lon="-1.66216">
        <ele>67</ele>
        <time>2023-11-13T13:03:15Z</time>
      </trkpt>
      <trkpt lat="47.2913" lon="-1.6622">
        <ele>67</ele>
        <time>2023-11-13T13:03:41Z</time>
      </trkpt>
      <trkpt lat="47.29166" lon="-1.66206">
        <ele>67</ele>
        <time>2023-11-13T13:04:30Z</time>
      </trkpt>
      <trkpt lat="47.29183" lon="-1.66216">
        <ele>67</ele>
        <time>2023-11-13T13:04:55Z</time>
      </trkpt>
      <trkpt lat="47.29224" lon="-1.66275">
        <ele>66</ele>
        <time>2023-11-13T13:06:11Z</time>
      </trkpt>
      <trkpt lat="47.29239" lon="-1.66325">
        <ele>66</ele>
        <time>2023-11-13T13:07:01Z</time>
      </trkpt>
      <trkpt lat="47.29243" lon="-1.66352">
        <ele>66</ele>
        <time>2023-11-13T13:07:26Z</time>
      </trkpt>
      <trkpt lat="47.2925" lon="-1.66378">
        <ele>67</ele>
        <time>2023-11-13T13:07:51Z</time>
      </trkpt>
      <trkpt lat="47.29259" lon="-1.66401">
        <ele>67</ele>
        <time>2023-11-13T13:08:15Z</time>
      </trkpt>
      <trkpt lat="47.29274" lon="-1.66418">
        <ele>67</ele>
        <time>2023-11-13T13:08:40Z</time>
      </trkpt>
      <trkpt lat="47.29313" lon="-1.66475">
        <ele>68</ele>
        <time>2023-11-13T13:09:54Z</time>
      </trkpt>
      <trkpt lat="47.29402" lon="-1.66654">
        <ele>69</ele>
        <time>2023-11-13T13:13:14Z</time>
      </trkpt>
      <trkpt lat="47.29408" lon="-1.6668">
        <ele>69</ele>
        <time>2023-11-13T13:13:39Z</time>
      </trkpt>
      <trkpt lat="47.29414" lon="-1.66761">
        <ele>70</ele>
        <time>2023-11-13T13:14:53Z</time>
      </trkpt>
      <trkpt lat="47.29414" lon="-1.66927">
        <ele>71</ele>
        <time>2023-11-13T13:17:23Z</time>
      </trkpt>
      <trkpt lat="47.29421" lon="-1.66951">
        <ele>71</ele>
        <time>2023-11-13T13:17:47Z</time>
      </trkpt>
      <trkpt lat="47.29443" lon="-1.66997">
        <ele>73</ele>
        <time>2023-11-13T13:18:38Z</time>
      </trkpt>
      <trkpt lat="47.29399" lon="-1.67088">
        <ele>71</ele>
        <time>2023-11-13T13:20:19Z</time>
      </trkpt>
      <trkpt lat="47.29376" lon="-1.6713">
        <ele>71</ele>
        <time>2023-11-13T13:21:08Z</time>
      </trkpt>
      <trkpt lat="47.29346" lon="-1.67198">
        <ele>71</ele>
        <time>2023-11-13T13:22:21Z</time>
      </trkpt>
      <trkpt lat="47.29322" lon="-1.6724">
        <ele>71</ele>
        <time>2023-11-13T13:23:11Z</time>
      </trkpt>
      <trkpt lat="47.29301" lon="-1.67287">
        <ele>71</ele>
        <time>2023-11-13T13:24:02Z</time>
      </trkpt>
      <trkpt lat="47.29288" lon="-1.67307">
        <ele>71</ele>
        <time>2023-11-13T13:24:27Z</time>
      </trkpt>
      <trkpt lat="47.29286" lon="-1.67333">
        <ele>72</ele>
        <time>2023-11-13T13:24:51Z</time>
      </trkpt>
      <trkpt lat="47.29278" lon="-1.67358">
        <ele>73</ele>
        <time>2023-11-13T13:25:16Z</time>
      </trkpt>
      <trkpt lat="47.29253" lon="-1.67399">
        <ele>74</ele>
        <time>2023-11-13T13:26:06Z</time>
      </trkpt>
      <trkpt lat="47.29191" lon="-1.67462">
        <ele>73</ele>
        <time>2023-11-13T13:27:46Z</time>
      </trkpt>
      <trkpt lat="47.29166" lon="-1.67535">
        <ele>72</ele>
        <time>2023-11-13T13:29:00Z</time>
      </trkpt>
      <trkpt lat="47.29156" lon="-1.67557">
        <ele>71</ele>
        <time>2023-11-13T13:29:24Z</time>
      </trkpt>
      <trkpt lat="47.29145" lon="-1.67579">
        <ele>70</ele>
        <time>2023-11-13T13:29:49Z</time>
      </trkpt>
      <trkpt lat="47.29119" lon="-1.67618">
        <ele>69</ele>
        <time>2023-11-13T13:30:38Z</time>
      </trkpt>
      <trkpt lat="47.29109" lon="-1.6764">
        <ele>68</ele>
        <time>2023-11-13T13:31:02Z</time>
      </trkpt>
      <trkpt lat="47.29105" lon="-1.67694">
        <ele>68</ele>
        <time>2023-11-13T13:31:52Z</time>
      </trkpt>
      <trkpt lat="47.29109" lon="-1.67805">
        <ele>66</ele>
        <time>2023-11-13T13:33:32Z</time>
      </trkpt>
      <trkpt lat="47.2912" lon="-1.67857">
        <ele>65</ele>
        <time>2023-11-13T13:34:21Z</time>
      </trkpt>
      <trkpt lat="47.29116" lon="-1.67913">
        <ele>63</ele>
        <time>2023-11-13T13:35:12Z</time>
      </trkpt>
      <trkpt lat="47.291" lon="-1.67992">
        <ele>60</ele>
        <time>2023-11-13T13:36:27Z</time>
      </trkpt>
      <trkpt lat="47.29073" lon="-1.68064">
        <ele>57</ele>
        <time>2023-11-13T13:37:42Z</time>
      </trkpt>
      <trkpt lat="47.29059" lon="-1.68082">
        <ele>57</ele>
        <time>2023-11-13T13:38:06Z</time>
      </trkpt>
      <trkpt lat="47.2904" lon="-1.6809">
        <ele>58</ele>
        <time>2023-11-13T13:38:33Z</time>
      </trkpt>
      <trkpt lat="47.29021" lon="-1.68091">
        <ele>59</ele>
        <time>2023-11-13T13:38:58Z</time>
      </trkpt>
      <trkpt lat="47.29005" lon="-1.68101">
        <ele>60</ele>
        <time>2023-11-13T13:39:21Z</time>
      </trkpt>
      <trkpt lat="47.28997" lon="-1.68126">
        <ele>61</ele>
        <time>2023-11-13T13:39:46Z</time>
      </trkpt>
      <trkpt lat="47.28994" lon="-1.68153">
        <ele>61</ele>
        <time>2023-11-13T13:40:11Z</time>
      </trkpt>
      <trkpt lat="47.28995" lon="-1.68179">
        <ele>61</ele>
        <time>2023-11-13T13:40:35Z</time>
      </trkpt>
      <trkpt lat="47.2899" lon="-1.68206">
        <ele>61</ele>
        <time>2023-11-13T13:41:00Z</time>
      </trkpt>
      <trkpt lat="47.28983" lon="-1.68232">
        <ele>61</ele>
        <time>2023-11-13T13:41:25Z</time>
      </trkpt>
      <trkpt lat="47.28969" lon="-1.68249">
        <ele>62</ele>
        <time>2023-11-13T13:41:49Z</time>
      </trkpt>
      <trkpt lat="47.28953" lon="-1.68262">
        <ele>63</ele>
        <time>2023-11-13T13:42:14Z</time>
      </trkpt>
      <trkpt lat="47.28898" lon="-1.6828">
        <ele>65</ele>
        <time>2023-11-13T13:43:29Z</time>
      </trkpt>
      <trkpt lat="47.28879" lon="-1.68281">
        <ele>65</ele>
        <time>2023-11-13T13:43:54Z</time>
      </trkpt>
      <trkpt lat="47.28861" lon="-1.68279">
        <ele>65</ele>
        <time>2023-11-13T13:44:18Z</time>
      </trkpt>
      <trkpt lat="47.28759" lon="-1.68217">
        <ele>65</ele>
        <time>2023-11-13T13:46:46Z</time>
      </trkpt>
      <trkpt lat="47.28741" lon="-1.68213">
        <ele>65</ele>
        <time>2023-11-13T13:47:10Z</time>
      </trkpt>
      <trkpt lat="47.28726" lon="-1.68199">
        <ele>64</ele>
        <time>2023-11-13T13:47:34Z</time>
      </trkpt>
      <trkpt lat="47.28698" lon="-1.68126">
        <ele>64</ele>
        <time>2023-11-13T13:48:50Z</time>
      </trkpt>
      <trkpt lat="47.28683" lon="-1.68076">
        <ele>63</ele>
        <time>2023-11-13T13:49:39Z</time>
      </trkpt>
      <trkpt lat="47.2865" lon="-1.68102">
        <ele>63</ele>
        <time>2023-11-13T13:50:29Z</time>
      </trkpt>
      <trkpt lat="47.28593" lon="-1.68173">
        <ele>61</ele>
        <time>2023-11-13T13:52:09Z</time>
      </trkpt>
      <trkpt lat="47.28562" lon="-1.68204">
        <ele>61</ele>
        <time>2023-11-13T13:52:59Z</time>
      </trkpt>
      <trkpt lat="47.28505" lon="-1.68275">
        <ele>58</ele>
        <time>2023-11-13T13:54:38Z</time>
      </trkpt>
      <trkpt lat="47.284" lon="-1.68385">
        <ele>53</ele>
        <time>2023-11-13T13:57:30Z</time>
      </trkpt>
      <trkpt lat="47.28386" lon="-1.68403">
        <ele>53</ele>
        <time>2023-11-13T13:57:55Z</time>
      </trkpt>
      <trkpt lat="47.2837" lon="-1.68415">
        <ele>54</ele>
        <time>2023-11-13T13:58:19Z</time>
      </trkpt>
      <trkpt lat="47.28351" lon="-1.68409">
        <ele>54</ele>
        <time>2023-11-13T13:58:45Z</time>
      </trkpt>
      <trkpt lat="47.28339" lon="-1.68389">
        <ele>54</ele>
        <time>2023-11-13T13:59:09Z</time>
      </trkpt>
      <trkpt lat="47.28337" lon="-1.68335">
        <ele>53</ele>
        <time>2023-11-13T13:59:58Z</time>
      </trkpt>
      <trkpt lat="47.2834" lon="-1.68308">
        <ele>53</ele>
        <time>2023-11-13T14:00:23Z</time>
      </trkpt>
      <trkpt lat="47.28332" lon="-1.68283">
        <ele>52</ele>
        <time>2023-11-13T14:00:48Z</time>
      </trkpt>
      <trkpt lat="47.28303" lon="-1.68249">
        <ele>52</ele>
        <time>2023-11-13T14:01:37Z</time>
      </trkpt>
      <trkpt lat="47.28235" lon="-1.68155">
        <ele>55</ele>
        <time>2023-11-13T14:03:42Z</time>
      </trkpt>
      <trkpt lat="47.28241" lon="-1.6813">
        <ele>55</ele>
        <time>2023-11-13T14:04:06Z</time>
      </trkpt>
      <trkpt lat="47.28258" lon="-1.68082">
        <ele>57</ele>
        <time>2023-11-13T14:04:55Z</time>
      </trkpt>
      <trkpt lat="47.28258" lon="-1.68054">
        <ele>57</ele>
        <time>2023-11-13T14:05:20Z</time>
      </trkpt>
      <trkpt lat="47.28274" lon="-1.68005">
        <ele>58</ele>
        <time>2023-11-13T14:06:09Z</time>
      </trkpt>
      <trkpt lat="47.28284" lon="-1.67898">
        <ele>57</ele>
        <time>2023-11-13T14:07:47Z</time>
      </trkpt>
      <trkpt lat="47.28289" lon="-1.67872">
        <ele>57</ele>
        <time>2023-11-13T14:08:11Z</time>
      </trkpt>
      <trkpt lat="47.28306" lon="-1.67824">
        <ele>58</ele>
        <time>2023-11-13T14:09:00Z</time>
      </trkpt>
      <trkpt lat="47.28297" lon="-1.67801">
        <ele>59</ele>
        <time>2023-11-13T14:09:24Z</time>
      </trkpt>
      <trkpt lat="47.28278" lon="-1.67802">
        <ele>60</ele>
        <time>2023-11-13T14:09:50Z</time>
      </trkpt>
      <trkpt lat="47.28205" lon="-1.6778">
        <ele>62</ele>
        <time>2023-11-13T14:11:29Z</time>
      </trkpt>
      <trkpt lat="47.28167" lon="-1.67777">
        <ele>63</ele>
        <time>2023-11-13T14:12:20Z</time>
      </trkpt>
      <trkpt lat="47.28149" lon="-1.6777">
        <ele>62</ele>
        <time>2023-11-13T14:12:45Z</time>
      </trkpt>
      <trkpt lat="47.28135" lon="-1.67788">
        <ele>62</ele>
        <time>2023-11-13T14:13:10Z</time>
      </trkpt>
      <trkpt lat="47.28104" lon="-1.67818">
        <ele>61</ele>
        <time>2023-11-13T14:13:59Z</time>
      </trkpt>
      <trkpt lat="47.28085" lon="-1.67816">
        <ele>61</ele>
        <time>2023-11-13T14:14:25Z</time>
      </trkpt>
      <trkpt lat="47.28047" lon="-1.67819">
        <ele>59</ele>
        <time>2023-11-13T14:15:15Z</time>
      </trkpt>
      <trkpt lat="47.28029" lon="-1.67814">
        <ele>58</ele>
        <time>2023-11-13T14:15:40Z</time>
      </trkpt>
      <trkpt lat="47.28011" lon="-1.67804">
        <ele>58</ele>
        <time>2023-11-13T14:16:05Z</time>
      </trkpt>
      <trkpt lat="47.27998" lon="-1.67783">
        <ele>57</ele>
        <time>2023-11-13T14:16:31Z</time>
      </trkpt>
      <trkpt lat="47.27988" lon="-1.67759">
        <ele>57</ele>
        <time>2023-11-13T14:16:57Z</time>
      </trkpt>
      <trkpt lat="47.27953" lon="-1.67746">
        <ele>57</ele>
        <time>2023-11-13T14:17:45Z</time>
      </trkpt>
      <trkpt lat="47.27934" lon="-1.67751">
        <ele>57</ele>
        <time>2023-11-13T14:18:11Z</time>
      </trkpt>
      <trkpt lat="47.27882" lon="-1.67778">
        <ele>58</ele>
        <time>2023-11-13T14:19:24Z</time>
      </trkpt>
      <trkpt lat="47.27863" lon="-1.67784">
        <ele>59</ele>
        <time>2023-11-13T14:19:50Z</time>
      </trkpt>
      <trkpt lat="47.27847" lon="-1.67773">
        <ele>60</ele>
        <time>2023-11-13T14:20:14Z</time>
      </trkpt>
      <trkpt lat="47.27811" lon="-1.6779">
        <ele>61</ele>
        <time>2023-11-13T14:21:04Z</time>
      </trkpt>
      <trkpt lat="47.27764" lon="-1.67833">
        <ele>60</ele>
        <time>2023-11-13T14:22:18Z</time>
      </trkpt>
      <trkpt lat="47.27723" lon="-1.67884">
        <ele>59</ele>
        <time>2023-11-13T14:23:29Z</time>
      </trkpt>
      <trkpt lat="47.27697" lon="-1.67926">
        <ele>60</ele>
        <time>2023-11-13T14:24:21Z</time>
      </trkpt>
      <trkpt lat="47.27644" lon="-1.68002">
        <ele>62</ele>
        <time>2023-11-13T14:26:00Z</time>
      </trkpt>
      <trkpt lat="47.27628" lon="-1.68018">
        <ele>62</ele>
        <time>2023-11-13T14:26:25Z</time>
      </trkpt>
      <trkpt lat="47.27609" lon="-1.68024">
        <ele>62</ele>
        <time>2023-11-13T14:26:51Z</time>
      </trkpt>
      <trkpt lat="47.27572" lon="-1.68021">
        <ele>62</ele>
        <time>2023-11-13T14:27:41Z</time>
      </trkpt>
      <trkpt lat="47.27539" lon="-1.68046">
        <ele>62</ele>
        <time>2023-11-13T14:28:30Z</time>
      </trkpt>
      <trkpt lat="47.27527" lon="-1.68066">
        <ele>61</ele>
        <time>2023-11-13T14:28:55Z</time>
      </trkpt>
      <trkpt lat="47.2752" lon="-1.68119">
        <ele>60</ele>
        <time>2023-11-13T14:29:43Z</time>
      </trkpt>
      <trkpt lat="47.2751" lon="-1.68171">
        <ele>60</ele>
        <time>2023-11-13T14:30:32Z</time>
      </trkpt>
      <trkpt lat="47.27502" lon="-1.68252">
        <ele>59</ele>
        <time>2023-11-13T14:31:46Z</time>
      </trkpt>
      <trkpt lat="47.27506" lon="-1.68307">
        <ele>58</ele>
        <time>2023-11-13T14:32:37Z</time>
      </trkpt>
      <trkpt lat="47.27505" lon="-1.68334">
        <ele>57</ele>
        <time>2023-11-13T14:33:01Z</time>
      </trkpt>
      <trkpt lat="47.27497" lon="-1.68358">
        <ele>56</ele>
        <time>2023-11-13T14:33:25Z</time>
      </trkpt>
      <trkpt lat="47.27482" lon="-1.68374">
        <ele>53</ele>
        <time>2023-11-13T14:33:50Z</time>
      </trkpt>
      <trkpt lat="47.2747" lon="-1.68394">
        <ele>51</ele>
        <time>2023-11-13T14:34:14Z</time>
      </trkpt>
      <trkpt lat="47.27467" lon="-1.68428">
        <ele>49</ele>
        <time>2023-11-13T14:34:45Z</time>
      </trkpt>
      <trkpt lat="47.27473" lon="-1.68454">
        <ele>49</ele>
        <time>2023-11-13T14:35:10Z</time>
      </trkpt>
      <trkpt lat="47.27473" lon="-1.68481">
        <ele>48</ele>
        <time>2023-11-13T14:35:34Z</time>
      </trkpt>
      <trkpt lat="47.27464" lon="-1.68506">
        <ele>47</ele>
        <time>2023-11-13T14:36:00Z</time>
      </trkpt>
      <trkpt lat="47.27451" lon="-1.68525">
        <ele>47</ele>
        <time>2023-11-13T14:36:25Z</time>
      </trkpt>
      <trkpt lat="47.27442" lon="-1.68549">
        <ele>48</ele>
        <time>2023-11-13T14:36:49Z</time>
      </trkpt>
      <trkpt lat="47.2741" lon="-1.68577">
        <ele>50</ele>
        <time>2023-11-13T14:37:39Z</time>
      </trkpt>
      <trkpt lat="47.27399" lon="-1.68599">
        <ele>52</ele>
        <time>2023-11-13T14:38:04Z</time>
      </trkpt>
      <trkpt lat="47.27327" lon="-1.68687">
        <ele>56</ele>
        <time>2023-11-13T14:40:09Z</time>
      </trkpt>
      <trkpt lat="47.27312" lon="-1.68704">
        <ele>57</ele>
        <time>2023-11-13T14:40:34Z</time>
      </trkpt>
      <trkpt lat="47.27294" lon="-1.6871">
        <ele>58</ele>
        <time>2023-11-13T14:40:58Z</time>
      </trkpt>
      <trkpt lat="47.27245" lon="-1.68755">
        <ele>61</ele>
        <time>2023-11-13T14:42:15Z</time>
      </trkpt>
      <trkpt lat="47.27206" lon="-1.68813">
        <ele>65</ele>
        <time>2023-11-13T14:43:29Z</time>
      </trkpt>
      <trkpt lat="47.27182" lon="-1.68855">
        <ele>67</ele>
        <time>2023-11-13T14:44:19Z</time>
      </trkpt>
      <trkpt lat="47.27167" lon="-1.6887">
        <ele>67</ele>
        <time>2023-11-13T14:44:43Z</time>
      </trkpt>
      <trkpt lat="47.27123" lon="-1.68817">
        <ele>67</ele>
        <time>2023-11-13T14:45:59Z</time>
      </trkpt>
      <trkpt lat="47.27092" lon="-1.68788">
        <ele>66</ele>
        <time>2023-11-13T14:46:48Z</time>
      </trkpt>
      <trkpt lat="47.27085" lon="-1.68764">
        <ele>66</ele>
        <time>2023-11-13T14:47:12Z</time>
      </trkpt>
      <trkpt lat="47.27109" lon="-1.68722">
        <ele>65</ele>
        <time>2023-11-13T14:48:02Z</time>
      </trkpt>
      <trkpt lat="47.27118" lon="-1.68697">
        <ele>65</ele>
        <time>2023-11-13T14:48:27Z</time>
      </trkpt>
      <trkpt lat="47.27094" lon="-1.68656">
        <ele>65</ele>
        <time>2023-11-13T14:49:16Z</time>
      </trkpt>
      <trkpt lat="47.2708" lon="-1.6864">
        <ele>65</ele>
        <time>2023-11-13T14:49:40Z</time>
      </trkpt>
      <trkpt lat="47.27082" lon="-1.68612">
        <ele>64</ele>
        <time>2023-11-13T14:50:05Z</time>
      </trkpt>
      <trkpt lat="47.27101" lon="-1.68567">
        <ele>61</ele>
        <time>2023-11-13T14:50:53Z</time>
      </trkpt>
      <trkpt lat="47.27112" lon="-1.68514">
        <ele>58</ele>
        <time>2023-11-13T14:51:44Z</time>
      </trkpt>
      <trkpt lat="47.27148" lon="-1.68503">
        <ele>57</ele>
        <time>2023-11-13T14:52:33Z</time>
      </trkpt>
      <trkpt lat="47.27166" lon="-1.68495">
        <ele>57</ele>
        <time>2023-11-13T14:52:58Z</time>
      </trkpt>
      <trkpt lat="47.27181" lon="-1.6848">
        <ele>56</ele>
        <time>2023-11-13T14:53:22Z</time>
      </trkpt>
      <trkpt lat="47.27205" lon="-1.68439">
        <ele>55</ele>
        <time>2023-11-13T14:54:11Z</time>
      </trkpt>
      <trkpt lat="47.27199" lon="-1.68414">
        <ele>54</ele>
        <time>2023-11-13T14:54:35Z</time>
      </trkpt>
      <trkpt lat="47.27186" lon="-1.68394">
        <ele>53</ele>
        <time>2023-11-13T14:55:00Z</time>
      </trkpt>
      <trkpt lat="47.27166" lon="-1.68348">
        <ele>52</ele>
        <time>2023-11-13T14:55:49Z</time>
      </trkpt>
      <trkpt lat="47.27154" lon="-1.68327">
        <ele>51</ele>
        <time>2023-11-13T14:56:14Z</time>
      </trkpt>
      <trkpt lat="47.27146" lon="-1.68301">
        <ele>49</ele>
        <time>2023-11-13T14:56:40Z</time>
      </trkpt>
      <trkpt lat="47.27125" lon="-1.68254">
        <ele>46</ele>
        <time>2023-11-13T14:57:31Z</time>
      </trkpt>
      <trkpt lat="47.27113" lon="-1.68233">
        <ele>46</ele>
        <time>2023-11-13T14:57:56Z</time>
      </trkpt>
      <trkpt lat="47.2708" lon="-1.68207">
        <ele>47</ele>
        <time>2023-11-13T14:58:46Z</time>
      </trkpt>
      <trkpt lat="47.27077" lon="-1.6818">
        <ele>47</ele>
        <time>2023-11-13T14:59:11Z</time>
      </trkpt>
      <trkpt lat="47.27082" lon="-1.68153">
        <ele>46</ele>
        <time>2023-11-13T14:59:36Z</time>
      </trkpt>
      <trkpt lat="47.27079" lon="-1.68126">
        <ele>45</ele>
        <time>2023-11-13T15:00:01Z</time>
      </trkpt>
      <trkpt lat="47.27051" lon="-1.6809">
        <ele>49</ele>
        <time>2023-11-13T15:00:50Z</time>
      </trkpt>
      <trkpt lat="47.27031" lon="-1.68045">
        <ele>53</ele>
        <time>2023-11-13T15:01:39Z</time>
      </trkpt>
      <trkpt lat="47.27032" lon="-1.68017">
        <ele>52</ele>
        <time>2023-11-13T15:02:04Z</time>
      </trkpt>
      <trkpt lat="47.27029" lon="-1.67989">
        <ele>53</ele>
        <time>2023-11-13T15:02:30Z</time>
      </trkpt>
      <trkpt lat="47.27047" lon="-1.67882">
        <ele>51</ele>
        <time>2023-11-13T15:04:10Z</time>
      </trkpt>
      <trkpt lat="47.2706" lon="-1.67864">
        <ele>49</ele>
        <time>2023-11-13T15:04:34Z</time>
      </trkpt>
      <trkpt lat="47.27077" lon="-1.67817">
        <ele>47</ele>
        <time>2023-11-13T15:05:22Z</time>
      </trkpt>
      <trkpt lat="47.27088" lon="-1.67764">
        <ele>49</ele>
        <time>2023-11-13T15:06:12Z</time>
      </trkpt>
      <trkpt lat="47.27107" lon="-1.67715">
        <ele>48</ele>
        <time>2023-11-13T15:07:03Z</time>
      </trkpt>
      <trkpt lat="47.27112" lon="-1.67689">
        <ele>48</ele>
        <time>2023-11-13T15:07:28Z</time>
      </trkpt>
      <trkpt lat="47.27094" lon="-1.67642">
        <ele>48</ele>
        <time>2023-11-13T15:08:17Z</time>
      </trkpt>
      <trkpt lat="47.27082" lon="-1.67589">
        <ele>45</ele>
        <time>2023-11-13T15:09:07Z</time>
      </trkpt>
      <trkpt lat="47.27073" lon="-1.67565">
        <ele>44</ele>
        <time>2023-11-13T15:09:32Z</time>
      </trkpt>
      <trkpt lat="47.27069" lon="-1.67538">
        <ele>44</ele>
        <time>2023-11-13T15:09:57Z</time>
      </trkpt>
      <trkpt lat="47.2707" lon="-1.67511">
        <ele>43</ele>
        <time>2023-11-13T15:10:22Z</time>
      </trkpt>
      <trkpt lat="47.27062" lon="-1.67487">
        <ele>43</ele>
        <time>2023-11-13T15:10:46Z</time>
      </trkpt>
      <trkpt lat="47.27067" lon="-1.67379">
        <ele>40</ele>
        <time>2023-11-13T15:12:24Z</time>
      </trkpt>
      <trkpt lat="47.27064" lon="-1.67352">
        <ele>39</ele>
        <time>2023-11-13T15:12:49Z</time>
      </trkpt>
      <trkpt lat="47.27066" lon="-1.67325">
        <ele>38</ele>
        <time>2023-11-13T15:13:13Z</time>
      </trkpt>
      <trkpt lat="47.2708" lon="-1.67307">
        <ele>38</ele>
        <time>2023-11-13T15:13:38Z</time>
      </trkpt>
      <trkpt lat="47.27085" lon="-1.6728">
        <ele>38</ele>
        <time>2023-11-13T15:14:03Z</time>
      </trkpt>
      <trkpt lat="47.27074" lon="-1.67256">
        <ele>37</ele>
        <time>2023-11-13T15:14:30Z</time>
      </trkpt>
      <trkpt lat="47.27058" lon="-1.67239">
        <ele>38</ele>
        <time>2023-11-13T15:14:56Z</time>
      </trkpt>
      <trkpt lat="47.27041" lon="-1.6723">
        <ele>39</ele>
        <time>2023-11-13T15:15:20Z</time>
      </trkpt>
      <trkpt lat="47.27023" lon="-1.67231">
        <ele>38</ele>
        <time>2023-11-13T15:15:44Z</time>
      </trkpt>
      <trkpt lat="47.26987" lon="-1.67241">
        <ele>38</ele>
        <time>2023-11-13T15:16:33Z</time>
      </trkpt>
      <trkpt lat="47.26951" lon="-1.67257">
        <ele>39</ele>
        <time>2023-11-13T15:17:23Z</time>
      </trkpt>
      <trkpt lat="47.26933" lon="-1.67254">
        <ele>40</ele>
        <time>2023-11-13T15:17:47Z</time>
      </trkpt>
      <trkpt lat="47.26897" lon="-1.67264">
        <ele>41</ele>
        <time>2023-11-13T15:18:36Z</time>
      </trkpt>
      <trkpt lat="47.26877" lon="-1.67261">
        <ele>41</ele>
        <time>2023-11-13T15:19:03Z</time>
      </trkpt>
      <trkpt lat="47.2686" lon="-1.67253">
        <ele>41</ele>
        <time>2023-11-13T15:19:27Z</time>
      </trkpt>
      <trkpt lat="47.26851" lon="-1.67229">
        <ele>41</ele>
        <time>2023-11-13T15:19:52Z</time>
      </trkpt>
      <trkpt lat="47.26834" lon="-1.6715">
        <ele>40</ele>
        <time>2023-11-13T15:21:07Z</time>
      </trkpt>
      <trkpt lat="47.26798" lon="-1.67143">
        <ele>43</ele>
        <time>2023-11-13T15:21:55Z</time>
      </trkpt>
      <trkpt lat="47.26802" lon="-1.67117">
        <ele>43</ele>
        <time>2023-11-13T15:22:19Z</time>
      </trkpt>
      <trkpt lat="47.2682" lon="-1.6711">
        <ele>42</ele>
        <time>2023-11-13T15:22:44Z</time>
      </trkpt>
      <trkpt lat="47.26803" lon="-1.67118">
        <ele>43</ele>
        <time>2023-11-13T15:23:08Z</time>
      </trkpt>
    </trkseg>
  </trk>
</gpx>